Terminal Aerodrome Forecast
Issued by NWS

Home | Current Version | Previous Version | Text Only | Print | Product List | Glossary On
Versions: 1 2 3 4 5 6 7 8 9 10 11 12 13 14 15 16 17
338
FTUS45 KABQ 300524
TAFLVS
TAF
KLVS 300524Z 3006/3106 19009KT P6SM FEW250
     FM300900 22009KT P6SM SCT250
      TEMPO 3012/3016 29007KT
     FM301800 25011G21KT P6SM BKN200
     FM302000 25018G28KT P6SM BKN200
     FM310200 19012KT P6SM SCT100 SCT200=

USA.gov is the U.S. government's official web portal to all federal, state and local government web resources and services.